sensor_id;sensor_type;location;lat;lon;timestamp;P1;durP1;ratioP1;P2;durP2;ratioP2
14849;SDS011;7517;48.400;11.770;2022-11-20T00:01:30;3.53;;;2.10;;
14849;SDS011;7517;48.400;11.770;2022-11-20T00:03:57;1.90;;;1.80;;
14849;SDS011;7517;48.400;11.770;2022-11-20T00:06:26;2.73;;;2.10;;
14849;SDS011;7517;48.400;11.770;2022-11-20T00:08:56;5.23;;;1.63;;
14849;SDS011;7517;48.400;11.770;2022-11-20T00:11:25;2.37;;;1.77;;
14849;SDS011;7517;48.400;11.770;2022-11-20T00:13:56;1.93;;;1.60;;
14849;SDS011;7517;48.400;11.770;2022-11-20T00:16:26;1.70;;;1.50;;
14849;SDS011;7517;48.400;11.770;2022-11-20T00:18:55;4.23;;;1.53;;
14849;SDS011;7517;48.400;11.770;2022-11-20T00:21:23;1.50;;;1.40;;
14849;SDS011;7517;48.400;11.770;2022-11-20T00:23:53;1.93;;;1.50;;
14849;SDS011;7517;48.400;11.770;2022-11-20T00:26:24;1.37;;;1.27;;
14849;SDS011;7517;48.400;11.770;2022-11-20T00:28:53;1.47;;;1.37;;
14849;SDS011;7517;48.400;11.770;2022-11-20T00:31:22;1.50;;;1.33;;
14849;SDS011;7517;48.400;11.770;2022-11-20T00:33:50;1.27;;;1.20;;
14849;SDS011;7517;48.400;11.770;2022-11-20T00:36:19;1.50;;;1.40;;
14849;SDS011;7517;48.400;11.770;2022-11-20T00:38:50;1.43;;;1.33;;
14849;SDS011;7517;48.400;11.770;2022-11-20T00:41:21;2.20;;;1.27;;
14849;SDS011;7517;48.400;11.770;2022-11-20T00:43:48;1.67;;;1.30;;
14849;SDS011;7517;48.400;11.770;2022-11-20T00:46:18;1.80;;;1.70;;
14849;SDS011;7517;48.400;11.770;2022-11-20T00:48:47;1.80;;;1.60;;
14849;SDS011;7517;48.400;11.770;2022-11-20T00:51:16;1.93;;;1.70;;
14849;SDS011;7517;48.400;11.770;2022-11-20T00:53:45;1.77;;;1.33;;
14849;SDS011;7517;48.400;11.770;2022-11-20T00:56:14;2.00;;;1.80;;
14849;SDS011;7517;48.400;11.770;2022-11-20T00:58:46;4.13;;;1.70;;
14849;SDS011;7517;48.400;11.770;2022-11-20T01:01:15;2.77;;;1.80;;
14849;SDS011;7517;48.400;11.770;2022-11-20T01:03:44;2.20;;;1.80;;
14849;SDS011;7517;48.400;11.770;2022-11-20T01:06:15;2.00;;;1.90;;
14849;SDS011;7517;48.400;11.770;2022-11-20T01:08:45;2.27;;;1.90;;
14849;SDS011;7517;48.400;11.770;2022-11-20T01:11:13;2.07;;;1.97;;
14849;SDS011;7517;48.400;11.770;2022-11-20T01:13:45;2.20;;;2.10;;
14849;SDS011;7517;48.400;11.770;2022-11-20T01:16:13;2.20;;;2.00;;
14849;SDS011;7517;48.400;11.770;2022-11-20T01:18:44;3.90;;;2.30;;
14849;SDS011;7517;48.400;11.770;2022-11-20T01:21:14;9.30;;;2.40;;
14849;SDS011;7517;48.400;11.770;2022-11-20T01:23:44;2.60;;;2.40;;
14849;SDS011;7517;48.400;11.770;2022-11-20T01:26:12;3.07;;;2.13;;
14849;SDS011;7517;48.400;11.770;2022-11-20T01:28:41;13.63;;;3.23;;
14849;SDS011;7517;48.400;11.770;2022-11-20T01:31:11;3.40;;;2.30;;
14849;SDS011;7517;48.400;11.770;2022-11-20T01:33:40;2.10;;;2.00;;
14849;SDS011;7517;48.400;11.770;2022-11-20T01:36:10;3.70;;;2.63;;
14849;SDS011;7517;48.400;11.770;2022-11-20T01:38:38;2.10;;;1.90;;
14849;SDS011;7517;48.400;11.770;2022-11-20T01:41:06;3.43;;;2.03;;
14849;SDS011;7517;48.400;11.770;2022-11-20T01:43:35;2.27;;;2.13;;
14849;SDS011;7517;48.400;11.770;2022-11-20T01:46:04;2.70;;;2.07;;
14849;SDS011;7517;48.400;11.770;2022-11-20T01:48:43;3.67;;;2.13;;
14849;SDS011;7517;48.400;11.770;2022-11-20T01:51:21;2.20;;;2.00;;
14849;SDS011;7517;48.400;11.770;2022-11-20T01:53:54;3.50;;;2.23;;
14849;SDS011;7517;48.400;11.770;2022-11-20T01:56:26;3.47;;;2.07;;
14849;SDS011;7517;48.400;11.770;2022-11-20T01:58:58;2.87;;;2.10;;
14849;SDS011;7517;48.400;11.770;2022-11-20T02:01:31;3.53;;;2.20;;
14849;SDS011;7517;48.400;11.770;2022-11-20T02:03:59;4.83;;;2.30;;
14849;SDS011;7517;48.400;11.770;2022-11-20T02:06:27;2.00;;;1.90;;
14849;SDS011;7517;48.400;11.770;2022-11-20T02:08:58;3.90;;;1.97;;
14849;SDS011;7517;48.400;11.770;2022-11-20T02:11:26;3.53;;;1.87;;
14849;SDS011;7517;48.400;11.770;2022-11-20T02:13:56;2.43;;;1.87;;
14849;SDS011;7517;48.400;11.770;2022-11-20T02:16:24;3.80;;;2.00;;
14849;SDS011;7517;48.400;11.770;2022-11-20T02:18:58;3.70;;;2.20;;
14849;SDS011;7517;48.400;11.770;2022-11-20T02:21:30;2.63;;;1.87;;
14849;SDS011;7517;48.400;11.770;2022-11-20T02:24:10;2.70;;;1.60;;
14849;SDS011;7517;48.400;11.770;2022-11-20T02:26:42;3.10;;;1.83;;
14849;SDS011;7517;48.400;11.770;2022-11-20T02:29:16;1.90;;;1.80;;
14849;SDS011;7517;48.400;11.770;2022-11-20T02:31:51;3.37;;;1.87;;
14849;SDS011;7517;48.400;11.770;2022-11-20T02:34:22;4.17;;;1.73;;
14849;SDS011;7517;48.400;11.770;2022-11-20T02:36:49;3.30;;;2.17;;
14849;SDS011;7517;48.400;11.770;2022-11-20T02:39:20;2.00;;;1.90;;
14849;SDS011;7517;48.400;11.770;2022-11-20T02:41:53;2.10;;;1.90;;
14849;SDS011;7517;48.400;11.770;2022-11-20T02:44:22;2.03;;;1.83;;
14849;SDS011;7517;48.400;11.770;2022-11-20T02:46:50;2.13;;;2.03;;
14849;SDS011;7517;48.400;11.770;2022-11-20T02:49:17;2.40;;;2.20;;
14849;SDS011;7517;48.400;11.770;2022-11-20T02:51:44;2.20;;;1.90;;
14849;SDS011;7517;48.400;11.770;2022-11-20T02:54:11;1.93;;;1.80;;
14849;SDS011;7517;48.400;11.770;2022-11-20T02:56:40;2.33;;;2.10;;
14849;SDS011;7517;48.400;11.770;2022-11-20T02:59:07;1.83;;;1.73;;
14849;SDS011;7517;48.400;11.770;2022-11-20T03:01:35;2.20;;;2.00;;
14849;SDS011;7517;48.400;11.770;2022-11-20T03:04:02;2.13;;;1.80;;
14849;SDS011;7517;48.400;11.770;2022-11-20T03:06:30;2.13;;;1.93;;
14849;SDS011;7517;48.400;11.770;2022-11-20T03:08:58;2.03;;;1.93;;
14849;SDS011;7517;48.400;11.770;2022-11-20T03:11:25;2.30;;;2.10;;
14849;SDS011;7517;48.400;11.770;2022-11-20T03:13:54;1.97;;;1.83;;
14849;SDS011;7517;48.400;11.770;2022-11-20T03:16:21;2.00;;;1.90;;
14849;SDS011;7517;48.400;11.770;2022-11-20T03:18:51;2.20;;;2.00;;
14849;SDS011;7517;48.400;11.770;2022-11-20T03:21:18;2.30;;;2.10;;
14849;SDS011;7517;48.400;11.770;2022-11-20T03:23:46;2.47;;;2.27;;
14849;SDS011;7517;48.400;11.770;2022-11-20T03:26:14;2.00;;;1.90;;
14849;SDS011;7517;48.400;11.770;2022-11-20T03:28:45;4.10;;;2.10;;
14849;SDS011;7517;48.400;11.770;2022-11-20T03:31:16;2.23;;;2.03;;
14849;SDS011;7517;48.400;11.770;2022-11-20T03:33:47;2.43;;;2.23;;
14849;SDS011;7517;48.400;11.770;2022-11-20T03:36:15;2.37;;;1.97;;
14849;SDS011;7517;48.400;11.770;2022-11-20T03:38:45;2.30;;;2.10;;
14849;SDS011;7517;48.400;11.770;2022-11-20T03:41:13;2.50;;;2.30;;
14849;SDS011;7517;48.400;11.770;2022-11-20T03:43:46;2.00;;;1.90;;
14849;SDS011;7517;48.400;11.770;2022-11-20T03:46:16;2.30;;;2.10;;
14849;SDS011;7517;48.400;11.770;2022-11-20T03:48:44;2.33;;;1.97;;
14849;SDS011;7517;48.400;11.770;2022-11-20T03:51:12;8.00;;;2.43;;
14849;SDS011;7517;48.400;11.770;2022-11-20T03:53:42;4.87;;;2.10;;
14849;SDS011;7517;48.400;11.770;2022-11-20T03:56:13;3.90;;;2.03;;
14849;SDS011;7517;48.400;11.770;2022-11-20T03:58:43;2.33;;;2.13;;
14849;SDS011;7517;48.400;11.770;2022-11-20T04:01:11;2.20;;;2.00;;
14849;SDS011;7517;48.400;11.770;2022-11-20T04:03:42;2.30;;;2.10;;
14849;SDS011;7517;48.400;11.770;2022-11-20T04:06:12;2.20;;;2.00;;
14849;SDS011;7517;48.400;11.770;2022-11-20T04:08:41;2.07;;;1.97;;
14849;SDS011;7517;48.400;11.770;2022-11-20T04:11:09;4.07;;;2.37;;
14849;SDS011;7517;48.400;11.770;2022-11-20T04:13:38;2.17;;;1.97;;
14849;SDS011;7517;48.400;11.770;2022-11-20T04:16:07;2.47;;;2.27;;
14849;SDS011;7517;48.400;11.770;2022-11-20T04:18:36;2.17;;;2.07;;
14849;SDS011;7517;48.400;11.770;2022-11-20T04:21:05;2.20;;;2.00;;
14849;SDS011;7517;48.400;11.770;2022-11-20T04:23:33;2.23;;;2.00;;
14849;SDS011;7517;48.400;11.770;2022-11-20T04:26:00;2.20;;;2.00;;
14849;SDS011;7517;48.400;11.770;2022-11-20T04:28:29;2.20;;;1.93;;
14849;SDS011;7517;48.400;11.770;2022-11-20T04:31:03;4.63;;;2.47;;
14849;SDS011;7517;48.400;11.770;2022-11-20T04:33:33;1.90;;;1.80;;
14849;SDS011;7517;48.400;11.770;2022-11-20T04:36:02;2.10;;;1.90;;
14849;SDS011;7517;48.400;11.770;2022-11-20T04:38:32;4.13;;;2.17;;
14849;SDS011;7517;48.400;11.770;2022-11-20T04:41:01;4.73;;;2.10;;
14849;SDS011;7517;48.400;11.770;2022-11-20T04:43:32;2.10;;;2.00;;
14849;SDS011;7517;48.400;11.770;2022-11-20T04:46:00;1.90;;;1.80;;
14849;SDS011;7517;48.400;11.770;2022-11-20T04:48:28;2.37;;;2.23;;
14849;SDS011;7517;48.400;11.770;2022-11-20T04:50:56;2.33;;;2.13;;
14849;SDS011;7517;48.400;11.770;2022-11-20T04:53:25;2.10;;;1.90;;
14849;SDS011;7517;48.400;11.770;2022-11-20T04:55:52;2.47;;;2.23;;
14849;SDS011;7517;48.400;11.770;2022-11-20T04:58:26;1.97;;;1.83;;
14849;SDS011;7517;48.400;11.770;2022-11-20T05:00:53;4.00;;;1.83;;
14849;SDS011;7517;48.400;11.770;2022-11-20T05:03:28;1.93;;;1.83;;
14849;SDS011;7517;48.400;11.770;2022-11-20T05:05:56;4.30;;;2.17;;
14849;SDS011;7517;48.400;11.770;2022-11-20T05:08:28;1.70;;;1.60;;
14849;SDS011;7517;48.400;11.770;2022-11-20T05:10:59;2.37;;;1.70;;
14849;SDS011;7517;48.400;11.770;2022-11-20T05:13:27;2.53;;;2.00;;
14849;SDS011;7517;48.400;11.770;2022-11-20T05:15:55;1.57;;;1.47;;
14849;SDS011;7517;48.400;11.770;2022-11-20T05:18:27;1.90;;;1.80;;
14849;SDS011;7517;48.400;11.770;2022-11-20T05:20:55;2.00;;;1.70;;
14849;SDS011;7517;48.400;11.770;2022-11-20T05:23:22;9.10;;;2.47;;
14849;SDS011;7517;48.400;11.770;2022-11-20T05:25:53;2.17;;;1.67;;
14849;SDS011;7517;48.400;11.770;2022-11-20T05:28:21;1.60;;;1.50;;
14849;SDS011;7517;48.400;11.770;2022-11-20T05:30:49;1.50;;;1.40;;
14849;SDS011;7517;48.400;11.770;2022-11-20T05:33:17;3.63;;;1.87;;
14849;SDS011;7517;48.400;11.770;2022-11-20T05:35:47;2.07;;;1.93;;
14849;SDS011;7517;48.400;11.770;2022-11-20T05:38:14;1.70;;;1.60;;
14849;SDS011;7517;48.400;11.770;2022-11-20T05:40:42;4.53;;;2.00;;
14849;SDS011;7517;48.400;11.770;2022-11-20T05:43:10;2.70;;;1.60;;
14849;SDS011;7517;48.400;11.770;2022-11-20T05:45:37;2.67;;;1.97;;
14849;SDS011;7517;48.400;11.770;2022-11-20T05:48:05;2.10;;;1.90;;
14849;SDS011;7517;48.400;11.770;2022-11-20T05:50:32;1.60;;;1.50;;
14849;SDS011;7517;48.400;11.770;2022-11-20T05:52:59;1.80;;;1.70;;
14849;SDS011;7517;48.400;11.770;2022-11-20T05:55:27;5.60;;;1.70;;
14849;SDS011;7517;48.400;11.770;2022-11-20T05:57:54;2.40;;;1.67;;
14849;SDS011;7517;48.400;11.770;2022-11-20T06:00:23;4.60;;;2.00;;
14849;SDS011;7517;48.400;11.770;2022-11-20T06:02:50;2.03;;;1.93;;
14849;SDS011;7517;48.400;11.770;2022-11-20T06:05:17;3.00;;;2.30;;
14849;SDS011;7517;48.400;11.770;2022-11-20T06:07:44;1.97;;;1.70;;
14849;SDS011;7517;48.400;11.770;2022-11-20T06:10:12;2.20;;;2.00;;
14849;SDS011;7517;48.400;11.770;2022-11-20T06:12:39;12.03;;;2.10;;
14849;SDS011;7517;48.400;11.770;2022-11-20T06:15:06;2.60;;;2.00;;
14849;SDS011;7517;48.400;11.770;2022-11-20T06:17:36;2.00;;;1.80;;
14849;SDS011;7517;48.400;11.770;2022-11-20T06:20:04;2.07;;;1.97;;
14849;SDS011;7517;48.400;11.770;2022-11-20T06:22:32;1.80;;;1.70;;
14849;SDS011;7517;48.400;11.770;2022-11-20T06:24:59;1.60;;;1.50;;
14849;SDS011;7517;48.400;11.770;2022-11-20T06:27:26;4.70;;;1.90;;
14849;SDS011;7517;48.400;11.770;2022-11-20T06:29:54;2.10;;;1.87;;
14849;SDS011;7517;48.400;11.770;2022-11-20T06:32:21;4.17;;;2.00;;
14849;SDS011;7517;48.400;11.770;2022-11-20T06:34:49;10.50;;;2.50;;
14849;SDS011;7517;48.400;11.770;2022-11-20T06:37:17;2.27;;;2.00;;
14849;SDS011;7517;48.400;11.770;2022-11-20T06:39:44;4.00;;;2.10;;
14849;SDS011;7517;48.400;11.770;2022-11-20T06:42:11;2.43;;;1.33;;
14849;SDS011;7517;48.400;11.770;2022-11-20T06:44:38;9.30;;;2.80;;
14849;SDS011;7517;48.400;11.770;2022-11-20T06:47:06;8.20;;;2.90;;
14849;SDS011;7517;48.400;11.770;2022-11-20T06:49:33;6.10;;;2.60;;
14849;SDS011;7517;48.400;11.770;2022-11-20T06:52:03;6.47;;;2.27;;
14849;SDS011;7517;48.400;11.770;2022-11-20T06:54:31;3.10;;;1.90;;
14849;SDS011;7517;48.400;11.770;2022-11-20T06:56:58;2.60;;;2.00;;
14849;SDS011;7517;48.400;11.770;2022-11-20T06:59:25;3.23;;;2.17;;
14849;SDS011;7517;48.400;11.770;2022-11-20T07:01:52;2.33;;;1.97;;
14849;SDS011;7517;48.400;11.770;2022-11-20T07:04:19;3.03;;;1.87;;
14849;SDS011;7517;48.400;11.770;2022-11-20T07:06:47;2.20;;;1.97;;
14849;SDS011;7517;48.400;11.770;2022-11-20T07:09:16;5.33;;;2.37;;
14849;SDS011;7517;48.400;11.770;2022-11-20T07:11:44;15.43;;;2.40;;
14849;SDS011;7517;48.400;11.770;2022-11-20T07:14:11;2.20;;;2.00;;
14849;SDS011;7517;48.400;11.770;2022-11-20T07:16:38;2.43;;;2.23;;
14849;SDS011;7517;48.400;11.770;2022-11-20T07:19:06;3.80;;;2.33;;
14849;SDS011;7517;48.400;11.770;2022-11-20T07:21:33;2.23;;;2.03;;
14849;SDS011;7517;48.400;11.770;2022-11-20T07:24:00;6.93;;;2.30;;
14849;SDS011;7517;48.400;11.770;2022-11-20T07:26:29;6.93;;;2.70;;
14849;SDS011;7517;48.400;11.770;2022-11-20T07:28:56;4.90;;;2.47;;
14849;SDS011;7517;48.400;11.770;2022-11-20T07:31:23;3.97;;;2.50;;
14849;SDS011;7517;48.400;11.770;2022-11-20T07:33:50;2.47;;;2.27;;
14849;SDS011;7517;48.400;11.770;2022-11-20T07:36:18;8.60;;;2.70;;
14849;SDS011;7517;48.400;11.770;2022-11-20T07:38:45;2.67;;;2.43;;
14849;SDS011;7517;48.400;11.770;2022-11-20T07:41:12;3.40;;;3.10;;
14849;SDS011;7517;48.400;11.770;2022-11-20T07:43:41;2.77;;;2.57;;
14849;SDS011;7517;48.400;11.770;2022-11-20T07:46:08;5.53;;;3.77;;
14849;SDS011;7517;48.400;11.770;2022-11-20T07:48:35;12.83;;;4.37;;
14849;SDS011;7517;48.400;11.770;2022-11-20T07:51:02;5.40;;;3.90;;
14849;SDS011;7517;48.400;11.770;2022-11-20T07:53:30;11.33;;;10.13;;
14849;SDS011;7517;48.400;11.770;2022-11-20T07:55:59;4.87;;;4.47;;
14849;SDS011;7517;48.400;11.770;2022-11-20T07:58:27;13.47;;;11.43;;
14849;SDS011;7517;48.400;11.770;2022-11-20T08:01:01;7.97;;;7.00;;
14849;SDS011;7517;48.400;11.770;2022-11-20T08:03:30;4.10;;;3.90;;
14849;SDS011;7517;48.400;11.770;2022-11-20T08:05:58;3.13;;;2.90;;
14849;SDS011;7517;48.400;11.770;2022-11-20T08:08:26;2.70;;;2.47;;
14849;SDS011;7517;48.400;11.770;2022-11-20T08:10:54;2.60;;;2.40;;
14849;SDS011;7517;48.400;11.770;2022-11-20T08:13:44;8.33;;;3.20;;
14849;SDS011;7517;48.400;11.770;2022-11-20T08:16:30;2.93;;;2.73;;
14849;SDS011;7517;48.400;11.770;2022-11-20T08:18:57;3.53;;;3.23;;
14849;SDS011;7517;48.400;11.770;2022-11-20T08:21:24;2.80;;;2.50;;
14849;SDS011;7517;48.400;11.770;2022-11-20T08:23:52;8.40;;;3.60;;
14849;SDS011;7517;48.400;11.770;2022-11-20T08:26:20;2.43;;;2.23;;
14849;SDS011;7517;48.400;11.770;2022-11-20T08:28:47;2.70;;;2.50;;
14849;SDS011;7517;48.400;11.770;2022-11-20T08:31:15;2.57;;;2.37;;
14849;SDS011;7517;48.400;11.770;2022-11-20T08:33:43;3.87;;;2.10;;
14849;SDS011;7517;48.400;11.770;2022-11-20T08:36:10;3.00;;;2.10;;
14849;SDS011;7517;48.400;11.770;2022-11-20T08:38:38;2.23;;;2.10;;
14849;SDS011;7517;48.400;11.770;2022-11-20T08:41:05;2.43;;;2.10;;
14849;SDS011;7517;48.400;11.770;2022-11-20T08:43:52;2.90;;;2.30;;
14849;SDS011;7517;48.400;11.770;2022-11-20T08:46:22;2.07;;;1.87;;
14849;SDS011;7517;48.400;11.770;2022-11-20T08:48:52;5.13;;;2.03;;
14849;SDS011;7517;48.400;11.770;2022-11-20T08:51:19;2.93;;;2.10;;
14849;SDS011;7517;48.400;11.770;2022-11-20T08:53:47;2.30;;;2.10;;
14849;SDS011;7517;48.400;11.770;2022-11-20T08:56:14;2.33;;;1.90;;
14849;SDS011;7517;48.400;11.770;2022-11-20T08:58:42;2.90;;;1.80;;
14849;SDS011;7517;48.400;11.770;2022-11-20T09:01:10;1.50;;;1.40;;
14849;SDS011;7517;48.400;11.770;2022-11-20T09:03:37;2.40;;;2.20;;
14849;SDS011;7517;48.400;11.770;2022-11-20T09:06:06;2.30;;;2.10;;
14849;SDS011;7517;48.400;11.770;2022-11-20T09:08:34;4.40;;;2.37;;
14849;SDS011;7517;48.400;11.770;2022-11-20T09:11:02;1.90;;;1.80;;
14849;SDS011;7517;48.400;11.770;2022-11-20T09:13:30;2.43;;;2.23;;
14849;SDS011;7517;48.400;11.770;2022-11-20T09:16:01;2.07;;;1.93;;
14849;SDS011;7517;48.400;11.770;2022-11-20T09:18:31;2.20;;;2.00;;
14849;SDS011;7517;48.400;11.770;2022-11-20T09:21:02;3.87;;;2.00;;
14849;SDS011;7517;48.400;11.770;2022-11-20T09:23:34;2.13;;;1.90;;
14849;SDS011;7517;48.400;11.770;2022-11-20T09:26:03;1.90;;;1.80;;
14849;SDS011;7517;48.400;11.770;2022-11-20T09:28:31;2.00;;;1.90;;
14849;SDS011;7517;48.400;11.770;2022-11-20T09:30:59;2.07;;;1.70;;
14849;SDS011;7517;48.400;11.770;2022-11-20T09:33:26;1.90;;;1.80;;
14849;SDS011;7517;48.400;11.770;2022-11-20T09:35:54;3.73;;;1.90;;
14849;SDS011;7517;48.400;11.770;2022-11-20T09:38:22;2.00;;;1.90;;
14849;SDS011;7517;48.400;11.770;2022-11-20T09:40:51;1.80;;;1.67;;
14849;SDS011;7517;48.400;11.770;2022-11-20T09:43:26;3.23;;;1.80;;
14849;SDS011;7517;48.400;11.770;2022-11-20T09:46:06;1.80;;;1.70;;
14849;SDS011;7517;48.400;11.770;2022-11-20T09:48:46;3.37;;;2.57;;
14849;SDS011;7517;48.400;11.770;2022-11-20T09:51:31;3.20;;;2.63;;
14849;SDS011;7517;48.400;11.770;2022-11-20T09:54:15;2.27;;;2.07;;
14849;SDS011;7517;48.400;11.770;2022-11-20T09:56:46;2.30;;;2.10;;
14849;SDS011;7517;48.400;11.770;2022-11-20T09:59:23;2.17;;;1.97;;
14849;SDS011;7517;48.400;11.770;2022-11-20T10:02:01;1.77;;;1.67;;
14849;SDS011;7517;48.400;11.770;2022-11-20T10:04:43;3.47;;;1.33;;
14849;SDS011;7517;48.400;11.770;2022-11-20T10:07:19;1.83;;;1.73;;
14849;SDS011;7517;48.400;11.770;2022-11-20T10:09:57;2.30;;;2.03;;
14849;SDS011;7517;48.400;11.770;2022-11-20T10:12:27;2.50;;;2.30;;
14849;SDS011;7517;48.400;11.770;2022-11-20T10:15:10;2.87;;;2.67;;
14849;SDS011;7517;48.400;11.770;2022-11-20T10:17:58;3.57;;;1.70;;
14849;SDS011;7517;48.400;11.770;2022-11-20T10:20:46;1.60;;;1.50;;
14849;SDS011;7517;48.400;11.770;2022-11-20T10:23:31;1.77;;;1.67;;
14849;SDS011;7517;48.400;11.770;2022-11-20T10:26:25;3.33;;;1.67;;
14849;SDS011;7517;48.400;11.770;2022-11-20T10:29:10;1.70;;;1.60;;
14849;SDS011;7517;48.400;11.770;2022-11-20T10:31:41;1.50;;;1.40;;
14849;SDS011;7517;48.400;11.770;2022-11-20T10:34:17;2.60;;;1.80;;
14849;SDS011;7517;48.400;11.770;2022-11-20T10:36:54;1.50;;;1.40;;
14849;SDS011;7517;48.400;11.770;2022-11-20T10:39:31;1.87;;;1.30;;
14849;SDS011;7517;48.400;11.770;2022-11-20T10:42:08;1.53;;;1.43;;
14849;SDS011;7517;48.400;11.770;2022-11-20T10:44:43;1.70;;;1.57;;
14849;SDS011;7517;48.400;11.770;2022-11-20T10:47:27;1.50;;;1.40;;
14849;SDS011;7517;48.400;11.770;2022-11-20T10:49:58;1.30;;;1.20;;
14849;SDS011;7517;48.400;11.770;2022-11-20T10:52:32;1.40;;;1.30;;
14849;SDS011;7517;48.400;11.770;2022-11-20T10:55:12;1.53;;;1.43;;
14849;SDS011;7517;48.400;11.770;2022-11-20T10:58:00;1.50;;;1.40;;
14849;SDS011;7517;48.400;11.770;2022-11-20T11:00:36;1.80;;;1.70;;
14849;SDS011;7517;48.400;11.770;2022-11-20T11:03:07;1.60;;;1.50;;
14849;SDS011;7517;48.400;11.770;2022-11-20T11:05:50;1.80;;;1.70;;
14849;SDS011;7517;48.400;11.770;2022-11-20T11:08:22;3.87;;;1.47;;
14849;SDS011;7517;48.400;11.770;2022-11-20T11:10:59;1.60;;;1.50;;
14849;SDS011;7517;48.400;11.770;2022-11-20T11:13:42;1.47;;;1.37;;
14849;SDS011;7517;48.400;11.770;2022-11-20T11:16:16;1.30;;;1.20;;
14849;SDS011;7517;48.400;11.770;2022-11-20T11:18:48;1.20;;;1.10;;
14849;SDS011;7517;48.400;11.770;2022-11-20T11:21:19;1.43;;;1.33;;
14849;SDS011;7517;48.400;11.770;2022-11-20T19:02:23;5.93;;;2.73;;
14849;SDS011;7517;48.400;11.770;2022-11-20T19:04:52;2.37;;;2.17;;
14849;SDS011;7517;48.400;11.770;2022-11-20T19:07:20;2.53;;;2.10;;
14849;SDS011;7517;48.400;11.770;2022-11-20T19:09:51;3.93;;;1.90;;
14849;SDS011;7517;48.400;11.770;2022-11-20T19:12:18;2.70;;;1.67;;
14849;SDS011;7517;48.400;11.770;2022-11-20T19:14:46;2.57;;;1.63;;
14849;SDS011;7517;48.400;11.770;2022-11-20T19:17:14;2.60;;;1.70;;
14849;SDS011;7517;48.400;11.770;2022-11-20T19:19:43;1.90;;;1.80;;
14849;SDS011;7517;48.400;11.770;2022-11-20T19:22:10;3.37;;;2.20;;
14849;SDS011;7517;48.400;11.770;2022-11-20T19:24:38;4.97;;;2.60;;
14849;SDS011;7517;48.400;11.770;2022-11-20T19:27:05;4.30;;;2.80;;
14849;SDS011;7517;48.400;11.770;2022-11-20T19:29:33;3.63;;;3.33;;
14849;SDS011;7517;48.400;11.770;2022-11-20T19:32:00;3.37;;;3.10;;
14849;SDS011;7517;48.400;11.770;2022-11-20T19:34:28;3.53;;;3.23;;
14849;SDS011;7517;48.400;11.770;2022-11-20T19:36:58;4.50;;;3.10;;
14849;SDS011;7517;48.400;11.770;2022-11-20T19:39:25;26.77;;;5.33;;
14849;SDS011;7517;48.400;11.770;2022-11-20T19:41:53;8.30;;;5.83;;
14849;SDS011;7517;48.400;11.770;2022-11-20T19:44:22;8.20;;;6.37;;
14849;SDS011;7517;48.400;11.770;2022-11-20T19:46:49;15.40;;;6.80;;
14849;SDS011;7517;48.400;11.770;2022-11-20T19:49:17;7.80;;;6.20;;
14849;SDS011;7517;48.400;11.770;2022-11-20T19:51:45;6.33;;;4.83;;
14849;SDS011;7517;48.400;11.770;2022-11-20T19:54:17;6.23;;;4.50;;
14849;SDS011;7517;48.400;11.770;2022-11-20T19:56:48;5.53;;;4.37;;
14849;SDS011;7517;48.400;11.770;2022-11-20T19:59:24;4.50;;;3.53;;
14849;SDS011;7517;48.400;11.770;2022-11-20T20:02:01;4.43;;;3.23;;
14849;SDS011;7517;48.400;11.770;2022-11-20T20:05:25;4.77;;;4.17;;
14849;SDS011;7517;48.400;11.770;2022-11-20T20:07:52;5.47;;;4.60;;
14849;SDS011;7517;48.400;11.770;2022-11-20T20:10:21;5.70;;;4.80;;
14849;SDS011;7517;48.400;11.770;2022-11-20T20:12:48;7.50;;;4.40;;
14849;SDS011;7517;48.400;11.770;2022-11-20T20:15:15;5.73;;;5.20;;
14849;SDS011;7517;48.400;11.770;2022-11-20T20:17:42;5.77;;;5.27;;
14849;SDS011;7517;48.400;11.770;2022-11-20T20:20:10;9.67;;;5.37;;
14849;SDS011;7517;48.400;11.770;2022-11-20T20:22:37;5.13;;;4.63;;
14849;SDS011;7517;48.400;11.770;2022-11-20T20:25:05;8.40;;;5.27;;
14849;SDS011;7517;48.400;11.770;2022-11-20T20:27:34;9.67;;;5.17;;
14849;SDS011;7517;48.400;11.770;2022-11-20T20:30:01;9.00;;;4.90;;
14849;SDS011;7517;48.400;11.770;2022-11-20T20:32:30;4.83;;;4.20;;
14849;SDS011;7517;48.400;11.770;2022-11-20T20:34:58;6.20;;;4.27;;
14849;SDS011;7517;48.400;11.770;2022-11-20T20:37:25;4.27;;;3.87;;
14849;SDS011;7517;48.400;11.770;2022-11-20T20:39:52;4.57;;;4.17;;
14849;SDS011;7517;48.400;11.770;2022-11-20T20:42:19;5.20;;;4.70;;
14849;SDS011;7517;48.400;11.770;2022-11-20T20:44:48;9.33;;;5.13;;
14849;SDS011;7517;48.400;11.770;2022-11-20T20:47:35;7.37;;;4.27;;
14849;SDS011;7517;48.400;11.770;2022-11-20T20:50:05;4.57;;;4.10;;
14849;SDS011;7517;48.400;11.770;2022-11-20T20:52:36;5.23;;;4.73;;
14849;SDS011;7517;48.400;11.770;2022-11-20T20:55:03;7.60;;;5.00;;
14849;SDS011;7517;48.400;11.770;2022-11-20T20:57:32;7.50;;;4.53;;
14849;SDS011;7517;48.400;11.770;2022-11-20T21:00:01;4.97;;;4.37;;
14849;SDS011;7517;48.400;11.770;2022-11-20T21:02:29;5.87;;;4.63;;
14849;SDS011;7517;48.400;11.770;2022-11-20T21:04:57;9.13;;;4.97;;
14849;SDS011;7517;48.400;11.770;2022-11-20T21:07:26;9.27;;;5.20;;
14849;SDS011;7517;48.400;11.770;2022-11-20T21:09:53;7.60;;;5.00;;
14849;SDS011;7517;48.400;11.770;2022-11-20T21:12:20;6.37;;;4.47;;
14849;SDS011;7517;48.400;11.770;2022-11-20T21:14:47;6.10;;;4.97;;
14849;SDS011;7517;48.400;11.770;2022-11-20T21:17:16;8.13;;;4.57;;
14849;SDS011;7517;48.400;11.770;2022-11-20T21:19:43;5.93;;;5.23;;
14849;SDS011;7517;48.400;11.770;2022-11-20T21:22:10;5.20;;;4.60;;
14849;SDS011;7517;48.400;11.770;2022-11-20T21:24:36;12.63;;;5.30;;
14849;SDS011;7517;48.400;11.770;2022-11-20T21:27:04;5.17;;;4.67;;
14849;SDS011;7517;48.400;11.770;2022-11-20T21:29:32;9.03;;;5.20;;
14849;SDS011;7517;48.400;11.770;2022-11-20T21:31:59;6.80;;;5.07;;
14849;SDS011;7517;48.400;11.770;2022-11-20T21:34:27;12.10;;;5.17;;
14849;SDS011;7517;48.400;11.770;2022-11-20T21:36:55;7.80;;;4.90;;
14849;SDS011;7517;48.400;11.770;2022-11-20T21:39:22;15.67;;;5.80;;
14849;SDS011;7517;48.400;11.770;2022-11-20T21:41:49;9.47;;;5.60;;
14849;SDS011;7517;48.400;11.770;2022-11-20T21:44:16;8.67;;;5.87;;
14849;SDS011;7517;48.400;11.770;2022-11-20T21:46:44;10.27;;;5.50;;
14849;SDS011;7517;48.400;11.770;2022-11-20T21:49:11;5.33;;;4.40;;
14849;SDS011;7517;48.400;11.770;2022-11-20T21:51:43;4.30;;;3.60;;
14849;SDS011;7517;48.400;11.770;2022-11-20T21:54:10;6.33;;;2.90;;
14849;SDS011;7517;48.400;11.770;2022-11-20T21:56:37;3.07;;;2.00;;
14849;SDS011;7517;48.400;11.770;2022-11-20T21:59:05;1.87;;;1.60;;
14849;SDS011;7517;48.400;11.770;2022-11-20T22:01:32;1.47;;;1.37;;
14849;SDS011;7517;48.400;11.770;2022-11-20T22:04:00;1.40;;;1.30;;
14849;SDS011;7517;48.400;11.770;2022-11-20T22:06:28;4.27;;;1.47;;
14849;SDS011;7517;48.400;11.770;2022-11-20T22:08:59;0.90;;;0.90;;
14849;SDS011;7517;48.400;11.770;2022-11-20T22:11:27;1.63;;;1.00;;
14849;SDS011;7517;48.400;11.770;2022-11-20T22:13:55;2.27;;;1.23;;
14849;SDS011;7517;48.400;11.770;2022-11-20T22:16:39;1.17;;;1.07;;
14849;SDS011;7517;48.400;11.770;2022-11-20T22:19:07;1.57;;;1.47;;
14849;SDS011;7517;48.400;11.770;2022-11-20T22:21:34;1.87;;;1.30;;
14849;SDS011;7517;48.400;11.770;2022-11-20T22:24:06;1.30;;;1.20;;
14849;SDS011;7517;48.400;11.770;2022-11-20T22:26:34;1.30;;;1.20;;
14849;SDS011;7517;48.400;11.770;2022-11-20T22:29:01;2.80;;;1.30;;
14849;SDS011;7517;48.400;11.770;2022-11-20T22:31:29;1.23;;;1.00;;
14849;SDS011;7517;48.400;11.770;2022-11-20T22:33:57;1.20;;;1.10;;
14849;SDS011;7517;48.400;11.770;2022-11-20T22:36:27;1.77;;;1.00;;
14849;SDS011;7517;48.400;11.770;2022-11-20T22:38:56;2.00;;;0.90;;
14849;SDS011;7517;48.400;11.770;2022-11-20T22:41:28;1.10;;;0.97;;
14849;SDS011;7517;48.400;11.770;2022-11-20T22:43:57;1.43;;;0.80;;